sensor_id;sensor_type;location;lat;lon;timestamp;temperature;humidity
13205;DHT22;6667;52.634;9.226;2023-03-20T07:04:13;8.90;99.90
13205;DHT22;6667;52.634;9.226;2023-03-20T07:06:40;8.90;99.90
13205;DHT22;6667;52.634;9.226;2023-03-20T07:09:07;8.90;99.90
13205;DHT22;6667;52.634;9.226;2023-03-20T07:11:33;8.90;99.90
13205;DHT22;6667;52.634;9.226;2023-03-20T07:14:00;9.00;99.90
13205;DHT22;6667;52.634;9.226;2023-03-20T07:16:27;9.00;99.90
13205;DHT22;6667;52.634;9.226;2023-03-20T07:18:53;9.00;99.90
13205;DHT22;6667;52.634;9.226;2023-03-20T07:21:22;9.00;99.90
13205;DHT22;6667;52.634;9.226;2023-03-20T07:23:48;9.10;99.90
13205;DHT22;6667;52.634;9.226;2023-03-20T07:26:15;9.20;99.90
13205;DHT22;6667;52.634;9.226;2023-03-20T07:28:42;9.20;99.90
13205;DHT22;6667;52.634;9.226;2023-03-20T07:31:16;9.20;99.90
13205;DHT22;6667;52.634;9.226;2023-03-20T07:33:44;9.20;99.90
13205;DHT22;6667;52.634;9.226;2023-03-20T07:36:10;9.30;99.90
13205;DHT22;6667;52.634;9.226;2023-03-20T07:38:38;9.30;99.90
13205;DHT22;6667;52.634;9.226;2023-03-20T07:41:06;9.30;99.90
13205;DHT22;6667;52.634;9.226;2023-03-20T07:43:33;9.30;99.90
13205;DHT22;6667;52.634;9.226;2023-03-20T07:46:01;9.30;99.90
13205;DHT22;6667;52.634;9.226;2023-03-20T07:48:28;9.40;99.90
13205;DHT22;6667;52.634;9.226;2023-03-20T07:50:55;9.30;99.90
13205;DHT22;6667;52.634;9.226;2023-03-20T07:53:21;9.30;99.90
13205;DHT22;6667;52.634;9.226;2023-03-20T07:55:49;9.40;99.90
13205;DHT22;6667;52.634;9.226;2023-03-20T07:58:16;9.40;99.90
13205;DHT22;6667;52.634;9.226;2023-03-20T08:00:43;9.40;99.90
13205;DHT22;6667;52.634;9.226;2023-03-20T08:03:10;9.50;99.90
13205;DHT22;6667;52.634;9.226;2023-03-20T08:05:36;9.50;99.90
13205;DHT22;6667;52.634;9.226;2023-03-20T08:08:03;9.50;99.90
13205;DHT22;6667;52.634;9.226;2023-03-20T08:10:30;9.60;99.90
13205;DHT22;6667;52.634;9.226;2023-03-20T08:12:58;9.50;99.90
13205;DHT22;6667;52.634;9.226;2023-03-20T08:15:24;9.50;99.90
13205;DHT22;6667;52.634;9.226;2023-03-20T08:17:51;9.60;99.90
13205;DHT22;6667;52.634;9.226;2023-03-20T08:20:17;9.60;99.90
13205;DHT22;6667;52.634;9.226;2023-03-20T08:22:46;9.60;99.90
13205;DHT22;6667;52.634;9.226;2023-03-20T08:25:14;9.60;99.90
13205;DHT22;6667;52.634;9.226;2023-03-20T08:27:41;9.50;99.90
13205;DHT22;6667;52.634;9.226;2023-03-20T08:30:10;9.60;99.90
13205;DHT22;6667;52.634;9.226;2023-03-20T08:32:38;9.60;99.90
13205;DHT22;6667;52.634;9.226;2023-03-20T08:35:05;9.60;99.90
13205;DHT22;6667;52.634;9.226;2023-03-20T08:37:33;9.60;99.90
13205;DHT22;6667;52.634;9.226;2023-03-20T08:40:00;9.60;99.90
13205;DHT22;6667;52.634;9.226;2023-03-20T08:42:28;9.50;99.90
13205;DHT22;6667;52.634;9.226;2023-03-20T08:44:55;9.50;99.90
13205;DHT22;6667;52.634;9.226;2023-03-20T08:47:23;9.50;99.90
13205;DHT22;6667;52.634;9.226;2023-03-20T08:49:50;9.50;99.90
13205;DHT22;6667;52.634;9.226;2023-03-20T08:52:17;9.50;99.90
13205;DHT22;6667;52.634;9.226;2023-03-20T08:54:43;9.50;99.90
13205;DHT22;6667;52.634;9.226;2023-03-20T08:57:10;9.50;99.90
13205;DHT22;6667;52.634;9.226;2023-03-20T08:59:37;9.50;99.90
13205;DHT22;6667;52.634;9.226;2023-03-20T09:02:04;9.50;99.90
13205;DHT22;6667;52.634;9.226;2023-03-20T09:04:32;9.50;99.90
13205;DHT22;6667;52.634;9.226;2023-03-20T09:06:59;9.60;99.90
13205;DHT22;6667;52.634;9.226;2023-03-20T09:09:27;9.50;99.90
13205;DHT22;6667;52.634;9.226;2023-03-20T09:11:54;9.40;99.90
13205;DHT22;6667;52.634;9.226;2023-03-20T09:14:21;9.50;99.90
13205;DHT22;6667;52.634;9.226;2023-03-20T09:16:48;9.50;99.90
13205;DHT22;6667;52.634;9.226;2023-03-20T09:19:16;9.40;99.90
13205;DHT22;6667;52.634;9.226;2023-03-20T09:21:44;9.40;99.90
13205;DHT22;6667;52.634;9.226;2023-03-20T09:24:11;9.30;99.90
13205;DHT22;6667;52.634;9.226;2023-03-20T09:26:38;9.40;99.90
13205;DHT22;6667;52.634;9.226;2023-03-20T09:29:05;9.40;99.90
13205;DHT22;6667;52.634;9.226;2023-03-20T09:31:32;9.50;99.90
13205;DHT22;6667;52.634;9.226;2023-03-20T09:33:58;9.50;99.90
13205;DHT22;6667;52.634;9.226;2023-03-20T09:36:25;9.50;99.90
13205;DHT22;6667;52.634;9.226;2023-03-20T09:38:53;9.40;99.90
13205;DHT22;6667;52.634;9.226;2023-03-20T09:41:21;9.40;99.90
13205;DHT22;6667;52.634;9.226;2023-03-20T09:44:00;9.40;99.90
13205;DHT22;6667;52.634;9.226;2023-03-20T09:46:38;9.40;99.90
13205;DHT22;6667;52.634;9.226;2023-03-20T09:49:15;9.50;99.90
13205;DHT22;6667;52.634;9.226;2023-03-20T09:51:48;9.60;99.90
13205;DHT22;6667;52.634;9.226;2023-03-20T09:54:21;9.90;99.90
13205;DHT22;6667;52.634;9.226;2023-03-20T09:56:51;10.10;99.90
13205;DHT22;6667;52.634;9.226;2023-03-20T09:59:19;10.40;99.90
13205;DHT22;6667;52.634;9.226;2023-03-20T10:01:49;10.50;99.90
13205;DHT22;6667;52.634;9.226;2023-03-20T10:04:16;10.40;99.90
13205;DHT22;6667;52.634;9.226;2023-03-20T10:06:43;10.40;99.90
13205;DHT22;6667;52.634;9.226;2023-03-20T10:09:14;10.50;99.90
13205;DHT22;6667;52.634;9.226;2023-03-20T10:11:57;10.70;99.90
13205;DHT22;6667;52.634;9.226;2023-03-20T10:14:36;10.90;99.90
13205;DHT22;6667;52.634;9.226;2023-03-20T10:17:16;10.80;99.90
13205;DHT22;6667;52.634;9.226;2023-03-20T10:19:50;10.80;99.90
13205;DHT22;6667;52.634;9.226;2023-03-20T10:22:22;10.80;99.90
13205;DHT22;6667;52.634;9.226;2023-03-20T10:24:55;10.90;99.90
13205;DHT22;6667;52.634;9.226;2023-03-20T10:27:27;10.90;99.90
13205;DHT22;6667;52.634;9.226;2023-03-20T10:30:05;10.90;99.90
13205;DHT22;6667;52.634;9.226;2023-03-20T10:32:40;10.90;99.90
13205;DHT22;6667;52.634;9.226;2023-03-20T10:35:19;11.00;99.90
13205;DHT22;6667;52.634;9.226;2023-03-20T10:38:02;11.10;99.90
13205;DHT22;6667;52.634;9.226;2023-03-20T10:40:34;11.10;99.90
13205;DHT22;6667;52.634;9.226;2023-03-20T10:43:10;11.00;99.90
13205;DHT22;6667;52.634;9.226;2023-03-20T10:45:43;11.10;99.90
13205;DHT22;6667;52.634;9.226;2023-03-20T10:48:18;11.40;99.90
13205;DHT22;6667;52.634;9.226;2023-03-20T10:50:48;11.60;99.90
13205;DHT22;6667;52.634;9.226;2023-03-20T10:53:41;11.50;99.90
13205;DHT22;6667;52.634;9.226;2023-03-20T10:56:13;11.40;99.90
13205;DHT22;6667;52.634;9.226;2023-03-20T10:58:44;11.60;99.90
13205;DHT22;6667;52.634;9.226;2023-03-20T11:01:12;11.60;99.90
13205;DHT22;6667;52.634;9.226;2023-03-20T11:03:40;11.70;99.90
13205;DHT22;6667;52.634;9.226;2023-03-20T11:06:16;11.80;99.90
13205;DHT22;6667;52.634;9.226;2023-03-20T11:08:47;11.90;99.90
13205;DHT22;6667;52.634;9.226;2023-03-20T11:11:21;12.10;99.90
13205;DHT22;6667;52.634;9.226;2023-03-20T11:13:49;12.20;99.90
13205;DHT22;6667;52.634;9.226;2023-03-20T11:16:19;12.30;99.90
13205;DHT22;6667;52.634;9.226;2023-03-20T11:18:47;12.30;99.90
13205;DHT22;6667;52.634;9.226;2023-03-20T11:21:18;12.30;99.90
13205;DHT22;6667;52.634;9.226;2023-03-20T11:23:45;12.60;99.90
13205;DHT22;6667;52.634;9.226;2023-03-20T11:26:13;12.70;99.90
13205;DHT22;6667;52.634;9.226;2023-03-20T11:28:46;12.80;99.90
13205;DHT22;6667;52.634;9.226;2023-03-20T11:31:19;12.90;99.90
13205;DHT22;6667;52.634;9.226;2023-03-20T11:33:51;12.80;99.90
13205;DHT22;6667;52.634;9.226;2023-03-20T11:36:23;12.60;99.90
13205;DHT22;6667;52.634;9.226;2023-03-20T11:38:51;12.50;99.90
13205;DHT22;6667;52.634;9.226;2023-03-20T11:41:23;12.50;99.90
13205;DHT22;6667;52.634;9.226;2023-03-20T11:43:50;12.70;99.90
13205;DHT22;6667;52.634;9.226;2023-03-20T11:46:19;12.70;99.90
13205;DHT22;6667;52.634;9.226;2023-03-20T11:49:01;12.70;99.90
13205;DHT22;6667;52.634;9.226;2023-03-20T11:51:29;12.50;99.90
13205;DHT22;6667;52.634;9.226;2023-03-20T11:54:00;12.30;99.90
13205;DHT22;6667;52.634;9.226;2023-03-20T11:56:28;12.40;99.90
13205;DHT22;6667;52.634;9.226;2023-03-20T11:59:00;12.50;99.90
13205;DHT22;6667;52.634;9.226;2023-03-20T12:01:37;12.70;99.90
13205;DHT22;6667;52.634;9.226;2023-03-20T12:04:06;13.00;99.90
13205;DHT22;6667;52.634;9.226;2023-03-20T12:06:50;13.10;99.90
13205;DHT22;6667;52.634;9.226;2023-03-20T12:09:30;13.20;99.90
13205;DHT22;6667;52.634;9.226;2023-03-20T12:12:01;13.20;99.90
13205;DHT22;6667;52.634;9.226;2023-03-20T12:14:38;13.00;99.90
13205;DHT22;6667;52.634;9.226;2023-03-20T12:17:31;13.00;99.90
13205;DHT22;6667;52.634;9.226;2023-03-20T12:20:06;12.90;99.90
13205;DHT22;6667;52.634;9.226;2023-03-20T12:22:43;12.70;99.90
13205;DHT22;6667;52.634;9.226;2023-03-20T12:25:21;12.60;99.90
13205;DHT22;6667;52.634;9.226;2023-03-20T12:27:54;12.90;99.90
13205;DHT22;6667;52.634;9.226;2023-03-20T12:30:28;12.90;99.90
13205;DHT22;6667;52.634;9.226;2023-03-20T12:33:00;12.70;99.90
13205;DHT22;6667;52.634;9.226;2023-03-20T12:35:31;12.80;99.90
13205;DHT22;6667;52.634;9.226;2023-03-20T12:37:59;12.70;99.90
13205;DHT22;6667;52.634;9.226;2023-03-20T12:40:42;12.50;99.90
13205;DHT22;6667;52.634;9.226;2023-03-20T12:43:14;12.60;99.90
13205;DHT22;6667;52.634;9.226;2023-03-20T12:45:48;12.70;99.90
13205;DHT22;6667;52.634;9.226;2023-03-20T12:48:38;12.70;99.90
13205;DHT22;6667;52.634;9.226;2023-03-20T12:51:11;12.70;99.90
13205;DHT22;6667;52.634;9.226;2023-03-20T12:53:49;12.90;99.90
13205;DHT22;6667;52.634;9.226;2023-03-20T12:56:27;13.00;99.90
13205;DHT22;6667;52.634;9.226;2023-03-20T12:58:59;12.80;99.90
13205;DHT22;6667;52.634;9.226;2023-03-20T13:01:30;12.80;99.90
13205;DHT22;6667;52.634;9.226;2023-03-20T13:07:06;12.70;99.90
13205;DHT22;6667;52.634;9.226;2023-03-20T13:10:00;12.60;99.90
13205;DHT22;6667;52.634;9.226;2023-03-20T13:12:36;12.90;99.90
13205;DHT22;6667;52.634;9.226;2023-03-20T13:15:15;13.10;99.90
13205;DHT22;6667;52.634;9.226;2023-03-20T13:17:49;13.20;99.90
13205;DHT22;6667;52.634;9.226;2023-03-20T13:20:22;13.10;99.90
13205;DHT22;6667;52.634;9.226;2023-03-20T13:22:58;13.10;99.90
13205;DHT22;6667;52.634;9.226;2023-03-20T13:25:44;12.90;99.90
13205;DHT22;6667;52.634;9.226;2023-03-20T13:28:21;13.00;99.90
13205;DHT22;6667;52.634;9.226;2023-03-20T13:30:52;12.90;99.90
13205;DHT22;6667;52.634;9.226;2023-03-20T13:33:33;12.90;99.90
13205;DHT22;6667;52.634;9.226;2023-03-20T13:36:10;13.00;99.90
13205;DHT22;6667;52.634;9.226;2023-03-20T13:38:45;12.90;99.90
13205;DHT22;6667;52.634;9.226;2023-03-20T13:41:14;13.00;99.90
13205;DHT22;6667;52.634;9.226;2023-03-20T13:43:45;13.00;99.90
13205;DHT22;6667;52.634;9.226;2023-03-20T13:46:16;13.10;99.90
13205;DHT22;6667;52.634;9.226;2023-03-20T13:48:45;13.20;99.90
13205;DHT22;6667;52.634;9.226;2023-03-20T13:51:20;13.10;99.90
13205;DHT22;6667;52.634;9.226;2023-03-20T13:53:56;12.80;99.90
13205;DHT22;6667;52.634;9.226;2023-03-20T13:56:34;12.90;99.90
13205;DHT22;6667;52.634;9.226;2023-03-20T14:02:09;12.90;99.90
13205;DHT22;6667;52.634;9.226;2023-03-20T14:04:36;12.70;99.90
13205;DHT22;6667;52.634;9.226;2023-03-20T14:07:26;12.70;99.90
13205;DHT22;6667;52.634;9.226;2023-03-20T14:09:53;12.70;99.90
13205;DHT22;6667;52.634;9.226;2023-03-20T14:12:23;12.80;99.90
13205;DHT22;6667;52.634;9.226;2023-03-20T14:14:53;12.80;99.90
13205;DHT22;6667;52.634;9.226;2023-03-20T14:17:24;12.80;99.90
13205;DHT22;6667;52.634;9.226;2023-03-20T14:19:52;12.60;99.90
13205;DHT22;6667;52.634;9.226;2023-03-20T14:22:25;12.40;99.90
13205;DHT22;6667;52.634;9.226;2023-03-20T14:24:58;12.20;99.90
13205;DHT22;6667;52.634;9.226;2023-03-20T14:27:28;12.20;99.90
13205;DHT22;6667;52.634;9.226;2023-03-20T14:29:55;12.10;99.90
13205;DHT22;6667;52.634;9.226;2023-03-20T14:32:30;12.20;99.90
13205;DHT22;6667;52.634;9.226;2023-03-20T14:35:19;12.30;99.90
13205;DHT22;6667;52.634;9.226;2023-03-20T14:38:17;12.30;99.90
13205;DHT22;6667;52.634;9.226;2023-03-20T14:40:52;12.20;99.90
13205;DHT22;6667;52.634;9.226;2023-03-20T14:43:38;12.00;99.90
13205;DHT22;6667;52.634;9.226;2023-03-20T14:46:16;11.80;99.90
13205;DHT22;6667;52.634;9.226;2023-03-20T14:48:46;11.90;99.90
13205;DHT22;6667;52.634;9.226;2023-03-20T14:51:23;12.10;99.90
13205;DHT22;6667;52.634;9.226;2023-03-20T14:53:56;12.00;99.90
13205;DHT22;6667;52.634;9.226;2023-03-20T14:56:28;12.00;99.90
13205;DHT22;6667;52.634;9.226;2023-03-20T14:59:01;12.00;99.90
13205;DHT22;6667;52.634;9.226;2023-03-20T15:01:44;11.90;99.90
13205;DHT22;6667;52.634;9.226;2023-03-20T15:04:24;11.80;99.90
13205;DHT22;6667;52.634;9.226;2023-03-20T15:06:55;11.80;99.90
13205;DHT22;6667;52.634;9.226;2023-03-20T15:09:26;11.70;99.90
13205;DHT22;6667;52.634;9.226;2023-03-20T15:11:56;11.80;99.90
13205;DHT22;6667;52.634;9.226;2023-03-20T15:14:30;11.80;99.90
13205;DHT22;6667;52.634;9.226;2023-03-20T15:17:00;11.80;99.90
13205;DHT22;6667;52.634;9.226;2023-03-20T15:19:27;11.60;99.90
13205;DHT22;6667;52.634;9.226;2023-03-20T15:21:54;11.50;99.90
13205;DHT22;6667;52.634;9.226;2023-03-20T15:24:21;11.60;99.90
13205;DHT22;6667;52.634;9.226;2023-03-20T15:26:52;11.60;99.90
13205;DHT22;6667;52.634;9.226;2023-03-20T15:29:21;11.60;99.90
13205;DHT22;6667;52.634;9.226;2023-03-20T15:31:53;11.60;99.90
13205;DHT22;6667;52.634;9.226;2023-03-20T15:34:22;11.60;99.90
13205;DHT22;6667;52.634;9.226;2023-03-20T15:36:50;11.70;99.90
13205;DHT22;6667;52.634;9.226;2023-03-20T15:39:20;11.60;99.90
13205;DHT22;6667;52.634;9.226;2023-03-20T15:41:52;11.60;99.90
13205;DHT22;6667;52.634;9.226;2023-03-20T15:44:22;11.60;99.90
13205;DHT22;6667;52.634;9.226;2023-03-20T15:46:50;11.50;99.90
13205;DHT22;6667;52.634;9.226;2023-03-20T15:49:17;11.50;99.90
13205;DHT22;6667;52.634;9.226;2023-03-20T15:51:44;11.30;99.90
13205;DHT22;6667;52.634;9.226;2023-03-20T15:54:13;11.30;99.90
13205;DHT22;6667;52.634;9.226;2023-03-20T15:56:42;11.20;99.90
13205;DHT22;6667;52.634;9.226;2023-03-20T15:59:13;11.20;99.90
13205;DHT22;6667;52.634;9.226;2023-03-20T16:01:41;11.20;99.90
13205;DHT22;6667;52.634;9.226;2023-03-20T16:04:11;11.20;99.90
13205;DHT22;6667;52.634;9.226;2023-03-20T16:06:45;11.20;99.90
13205;DHT22;6667;52.634;9.226;2023-03-20T16:09:14;11.10;99.90
13205;DHT22;6667;52.634;9.226;2023-03-20T16:11:43;11.00;99.90
13205;DHT22;6667;52.634;9.226;2023-03-20T16:14:15;11.00;99.90
13205;DHT22;6667;52.634;9.226;2023-03-20T16:16:43;10.90;99.90
13205;DHT22;6667;52.634;9.226;2023-03-20T16:19:12;10.90;99.90
13205;DHT22;6667;52.634;9.226;2023-03-20T16:21:43;10.90;99.90
13205;DHT22;6667;52.634;9.226;2023-03-20T16:24:16;10.90;99.90
13205;DHT22;6667;52.634;9.226;2023-03-20T16:26:44;10.90;99.90
13205;DHT22;6667;52.634;9.226;2023-03-20T16:29:15;10.90;99.90
13205;DHT22;6667;52.634;9.226;2023-03-20T16:31:47;10.80;99.90
13205;DHT22;6667;52.634;9.226;2023-03-20T16:34:17;10.80;99.90
13205;DHT22;6667;52.634;9.226;2023-03-20T16:36:51;10.80;99.90
13205;DHT22;6667;52.634;9.226;2023-03-20T16:39:19;10.70;99.90
13205;DHT22;6667;52.634;9.226;2023-03-20T16:41:46;10.70;99.90
13205;DHT22;6667;52.634;9.226;2023-03-20T16:44:20;10.70;99.90
13205;DHT22;6667;52.634;9.226;2023-03-20T16:46:57;10.70;99.90
13205;DHT22;6667;52.634;9.226;2023-03-20T16:49:47;10.70;99.90
13205;DHT22;6667;52.634;9.226;2023-03-20T16:52:15;10.70;99.90
13205;DHT22;6667;52.634;9.226;2023-03-20T16:54:43;10.60;99.90
13205;DHT22;6667;52.634;9.226;2023-03-20T16:57:14;10.50;99.90
13205;DHT22;6667;52.634;9.226;2023-03-20T16:59:43;10.50;99.90
13205;DHT22;6667;52.634;9.226;2023-03-20T17:02:11;10.50;99.90
13205;DHT22;6667;52.634;9.226;2023-03-20T17:04:39;10.50;99.90
13205;DHT22;6667;52.634;9.226;2023-03-20T17:07:10;10.50;99.90
13205;DHT22;6667;52.634;9.226;2023-03-20T17:09:52;10.50;99.90
13205;DHT22;6667;52.634;9.226;2023-03-20T17:12:19;10.40;99.90
13205;DHT22;6667;52.634;9.226;2023-03-20T17:14:50;10.40;99.90
13205;DHT22;6667;52.634;9.226;2023-03-20T17:17:18;10.40;99.90
13205;DHT22;6667;52.634;9.226;2023-03-20T17:19:45;10.30;99.90
13205;DHT22;6667;52.634;9.226;2023-03-20T17:22:16;10.30;99.90
13205;DHT22;6667;52.634;9.226;2023-03-20T17:24:44;10.30;99.90
13205;DHT22;6667;52.634;9.226;2023-03-20T17:27:11;10.30;99.90
13205;DHT22;6667;52.634;9.226;2023-03-20T17:29:38;10.20;99.90
13205;DHT22;6667;52.634;9.226;2023-03-20T17:32:10;10.20;99.90
13205;DHT22;6667;52.634;9.226;2023-03-20T17:34:37;10.20;99.90
13205;DHT22;6667;52.634;9.226;2023-03-20T17:37:04;10.20;99.90
13205;DHT22;6667;52.634;9.226;2023-03-20T17:39:31;10.20;99.90
13205;DHT22;6667;52.634;9.226;2023-03-20T17:41:58;10.20;99.90
13205;DHT22;6667;52.634;9.226;2023-03-20T17:44:25;10.10;99.90
13205;DHT22;6667;52.634;9.226;2023-03-20T17:46:52;10.00;99.90
13205;DHT22;6667;52.634;9.226;2023-03-20T17:49:20;10.00;99.90
13205;DHT22;6667;52.634;9.226;2023-03-20T17:51:51;10.00;99.90
13205;DHT22;6667;52.634;9.226;2023-03-20T17:54:18;9.90;99.90
13205;DHT22;6667;52.634;9.226;2023-03-20T17:56:45;9.80;99.90
13205;DHT22;6667;52.634;9.226;2023-03-20T17:59:12;9.70;99.90
13205;DHT22;6667;52.634;9.226;2023-03-20T18:01:39;9.70;99.90
13205;DHT22;6667;52.634;9.226;2023-03-20T18:04:06;9.70;99.90
13205;DHT22;6667;52.634;9.226;2023-03-20T18:06:34;9.60;99.90
13205;DHT22;6667;52.634;9.226;2023-03-20T18:09:01;9.70;99.90
13205;DHT22;6667;52.634;9.226;2023-03-20T18:11:28;9.60;99.90
13205;DHT22;6667;52.634;9.226;2023-03-20T18:13:55;9.60;99.90
13205;DHT22;6667;52.634;9.226;2023-03-20T18:16:23;9.50;99.90
13205;DHT22;6667;52.634;9.226;2023-03-20T18:18:51;9.50;99.90
13205;DHT22;6667;52.634;9.226;2023-03-20T18:21:18;9.50;99.90
13205;DHT22;6667;52.634;9.226;2023-03-20T18:23:46;9.40;99.90
13205;DHT22;6667;52.634;9.226;2023-03-20T18:26:18;9.40;99.90
13205;DHT22;6667;52.634;9.226;2023-03-20T18:28:45;9.40;99.90
13205;DHT22;6667;52.634;9.226;2023-03-20T18:31:12;9.40;99.90
13205;DHT22;6667;52.634;9.226;2023-03-20T18:33:44;9.40;99.90
13205;DHT22;6667;52.634;9.226;2023-03-20T18:36:13;9.30;99.90
13205;DHT22;6667;52.634;9.226;2023-03-20T18:38:40;9.20;99.90
13205;DHT22;6667;52.634;9.226;2023-03-20T18:41:08;9.20;99.90
13205;DHT22;6667;52.634;9.226;2023-03-20T18:43:36;9.20;99.90
13205;DHT22;6667;52.634;9.226;2023-03-20T18:46:02;9.20;99.90
13205;DHT22;6667;52.634;9.226;2023-03-20T18:48:29;9.20;99.90
13205;DHT22;6667;52.634;9.226;2023-03-20T18:50:56;9.20;99.90
13205;DHT22;6667;52.634;9.226;2023-03-20T18:53:26;9.20;99.90
13205;DHT22;6667;52.634;9.226;2023-03-20T18:55:53;9.20;99.90
13205;DHT22;6667;52.634;9.226;2023-03-20T18:58:22;9.20;99.90
13205;DHT22;6667;52.634;9.226;2023-03-20T19:00:50;9.20;99.90
13205;DHT22;6667;52.634;9.226;2023-03-20T19:03:19;9.20;99.90
13205;DHT22;6667;52.634;9.226;2023-03-20T19:05:48;9.20;99.90
13205;DHT22;6667;52.634;9.226;2023-03-20T19:08:15;9.20;99.90
13205;DHT22;6667;52.634;9.226;2023-03-20T19:10:43;9.20;99.90
13205;DHT22;6667;52.634;9.226;2023-03-20T19:13:13;9.20;99.90
13205;DHT22;6667;52.634;9.226;2023-03-20T19:15:43;9.20;99.90
13205;DHT22;6667;52.634;9.226;2023-03-20T19:18:13;9.20;99.90
13205;DHT22;6667;52.634;9.226;2023-03-20T19:20:42;9.10;99.90
13205;DHT22;6667;52.634;9.226;2023-03-20T19:23:12;9.10;99.90
13205;DHT22;6667;52.634;9.226;2023-03-20T19:25:41;9.10;99.90
13205;DHT22;6667;52.634;9.226;2023-03-20T19:28:17;9.20;99.90
13205;DHT22;6667;52.634;9.226;2023-03-20T19:30:46;9.10;99.90
13205;DHT22;6667;52.634;9.226;2023-03-20T19:33:13;9.10;99.90
13205;DHT22;6667;52.634;9.226;2023-03-20T19:35:41;9.10;99.90
13205;DHT22;6667;52.634;9.226;2023-03-20T19:38:11;9.00;99.90
13205;DHT22;6667;52.634;9.226;2023-03-20T19:40:40;9.00;99.90
13205;DHT22;6667;52.634;9.226;2023-03-20T19:43:07;9.00;99.90
13205;DHT22;6667;52.634;9.226;2023-03-20T19:45:35;9.00;99.90
13205;DHT22;6667;52.634;9.226;2023-03-20T19:48:11;9.00;99.90
13205;DHT22;6667;52.634;9.226;2023-03-20T19:50:39;9.00;99.90
13205;DHT22;6667;52.634;9.226;2023-03-20T19:53:08;8.90;99.90
13205;DHT22;6667;52.634;9.226;2023-03-20T19:55:36;9.00;99.90
13205;DHT22;6667;52.634;9.226;2023-03-20T19:58:04;8.90;99.90
13205;DHT22;6667;52.634;9.226;2023-03-20T20:00:34;8.90;99.90
13205;DHT22;6667;52.634;9.226;2023-03-20T20:03:06;8.80;99.90
13205;DHT22;6667;52.634;9.226;2023-03-20T20:05:34;8.80;99.90
13205;DHT22;6667;52.634;9.226;2023-03-20T20:08:03;8.80;99.90
13205;DHT22;6667;52.634;9.226;2023-03-20T20:10:35;8.70;99.90
13205;DHT22;6667;52.634;9.226;2023-03-20T20:13:03;8.70;99.90
13205;DHT22;6667;52.634;9.226;2023-03-20T20:15:29;8.70;99.90
13205;DHT22;6667;52.634;9.226;2023-03-20T20:17:57;8.60;99.90
13205;DHT22;6667;52.634;9.226;2023-03-20T20:20:25;8.60;99.90
13205;DHT22;6667;52.634;9.226;2023-03-20T20:22:54;8.50;99.90
13205;DHT22;6667;52.634;9.226;2023-03-20T20:25:21;8.50;99.90
13205;DHT22;6667;52.634;9.226;2023-03-20T20:27:48;8.40;99.90
13205;DHT22;6667;52.634;9.226;2023-03-20T20:30:17;8.40;99.90
13205;DHT22;6667;52.634;9.226;2023-03-20T20:32:45;8.30;99.90
13205;DHT22;6667;52.634;9.226;2023-03-20T20:35:12;8.30;99.90
13205;DHT22;6667;52.634;9.226;2023-03-20T20:37:41;8.30;99.90
13205;DHT22;6667;52.634;9.226;2023-03-20T20:40:10;8.20;99.90
13205;DHT22;6667;52.634;9.226;2023-03-20T20:42:37;8.20;99.90
13205;DHT22;6667;52.634;9.226;2023-03-20T20:45:06;8.20;99.90
13205;DHT22;6667;52.634;9.226;2023-03-20T20:47:33;8.10;99.90
13205;DHT22;6667;52.634;9.226;2023-03-20T20:50:00;8.00;99.90
13205;DHT22;6667;52.634;9.226;2023-03-20T20:52:28;8.00;99.90
13205;DHT22;6667;52.634;9.226;2023-03-20T20:54:56;8.00;99.90
13205;DHT22;6667;52.634;9.226;2023-03-20T20:57:23;7.90;99.90
13205;DHT22;6667;52.634;9.226;2023-03-20T20:59:50;7.90;99.90
13205;DHT22;6667;52.634;9.226;2023-03-20T21:02:24;7.90;99.90
13205;DHT22;6667;52.634;9.226;2023-03-20T21:04:52;7.90;99.90
13205;DHT22;6667;52.634;9.226;2023-03-20T21:07:18;7.90;99.90
13205;DHT22;6667;52.634;9.226;2023-03-20T21:09:46;7.90;99.90
13205;DHT22;6667;52.634;9.226;2023-03-20T21:12:14;7.80;99.90
13205;DHT22;6667;52.634;9.226;2023-03-20T21:14:41;7.80;99.90
13205;DHT22;6667;52.634;9.226;2023-03-20T21:17:09;7.80;99.90
13205;DHT22;6667;52.634;9.226;2023-03-20T21:19:37;7.70;99.90
13205;DHT22;6667;52.634;9.226;2023-03-20T21:22:06;7.80;99.90
13205;DHT22;6667;52.634;9.226;2023-03-20T21:24:34;7.80;99.90
13205;DHT22;6667;52.634;9.226;2023-03-20T21:27:02;7.70;99.90
13205;DHT22;6667;52.634;9.226;2023-03-20T21:29:30;7.80;99.90
13205;DHT22;6667;52.634;9.226;2023-03-20T21:31:57;7.80;99.90
13205;DHT22;6667;52.634;9.226;2023-03-20T21:34:24;7.80;99.90
13205;DHT22;6667;52.634;9.226;2023-03-20T21:36:53;7.80;99.90
13205;DHT22;6667;52.634;9.226;2023-03-20T21:39:20;7.80;99.90
13205;DHT22;6667;52.634;9.226;2023-03-20T21:41:47;7.80;99.90
13205;DHT22;6667;52.634;9.226;2023-03-20T21:44:14;7.80;99.90
13205;DHT22;6667;52.634;9.226;2023-03-20T21:46:43;7.80;99.90
13205;DHT22;6667;52.634;9.226;2023-03-20T21:49:10;7.70;99.90
13205;DHT22;6667;52.634;9.226;2023-03-20T21:51:37;7.70;99.90
13205;DHT22;6667;52.634;9.226;2023-03-20T21:54:04;7.70;99.90
13205;DHT22;6667;52.634;9.226;2023-03-20T21:56:31;7.80;99.90
13205;DHT22;6667;52.634;9.226;2023-03-20T21:58:58;7.80;99.90
13205;DHT22;6667;52.634;9.226;2023-03-20T22:01:25;7.80;99.90
13205;DHT22;6667;52.634;9.226;2023-03-20T22:03:53;7.80;99.90
13205;DHT22;6667;52.634;9.226;2023-03-20T22:06:20;7.80;99.90
13205;DHT22;6667;52.634;9.226;2023-03-20T22:08:47;7.80;99.90
13205;DHT22;6667;52.634;9.226;2023-03-20T22:11:14;7.80;99.90
13205;DHT22;6667;52.634;9.226;2023-03-20T22:13:41;7.80;99.90
13205;DHT22;6667;52.634;9.226;2023-03-20T22:16:09;7.80;99.90
13205;DHT22;6667;52.634;9.226;2023-03-20T22:18:36;7.70;99.90
13205;DHT22;6667;52.634;9.226;2023-03-20T22:21:05;7.80;99.90
13205;DHT22;6667;52.634;9.226;2023-03-20T22:23:32;7.80;99.90
13205;DHT22;6667;52.634;9.226;2023-03-20T22:26:01;7.80;99.90
13205;DHT22;6667;52.634;9.226;2023-03-20T22:28:29;7.80;99.90
13205;DHT22;6667;52.634;9.226;2023-03-20T22:30:56;7.80;99.90
13205;DHT22;6667;52.634;9.226;2023-03-20T22:33:23;7.80;99.90
13205;DHT22;6667;52.634;9.226;2023-03-20T22:35:51;7.80;99.90
13205;DHT22;6667;52.634;9.226;2023-03-20T22:38:19;7.80;99.90
13205;DHT22;6667;52.634;9.226;2023-03-20T22:40:51;7.80;99.90
13205;DHT22;6667;52.634;9.226;2023-03-20T22:43:18;7.80;99.90
13205;DHT22;6667;52.634;9.226;2023-03-20T22:45:45;7.80;99.90
13205;DHT22;6667;52.634;9.226;2023-03-20T22:48:15;7.80;99.90
13205;DHT22;6667;52.634;9.226;2023-03-20T22:50:42;7.80;99.90
13205;DHT22;6667;52.634;9.226;2023-03-20T22:53:09;7.80;99.90
13205;DHT22;6667;52.634;9.226;2023-03-20T22:55:39;7.80;99.90
13205;DHT22;6667;52.634;9.226;2023-03-20T22:58:08;7.80;99.90
13205;DHT22;6667;52.634;9.226;2023-03-20T23:00:35;7.80;99.90
13205;DHT22;6667;52.634;9.226;2023-03-20T23:03:04;7.80;99.90
13205;DHT22;6667;52.634;9.226;2023-03-20T23:05:31;7.90;99.90
13205;DHT22;6667;52.634;9.226;2023-03-20T23:08:01;7.90;99.90
13205;DHT22;6667;52.634;9.226;2023-03-20T23:10:28;7.90;99.90
13205;DHT22;6667;52.634;9.226;2023-03-20T23:12:56;7.90;99.90
13205;DHT22;6667;52.634;9.226;2023-03-20T23:15:23;8.00;99.90
13205;DHT22;6667;52.634;9.226;2023-03-20T23:17:50;7.90;99.90
